Sortavala, Russia
Current Conditions -  °F | °C
As of 8:20 PM on Saturday 20 Dec 2014 (Local Time) from EFSA Reporting Station
Overcast Overcast  
Wind Chill: 25°   Ceiling: 1900
Heat Index: 32°   Visibility: 6mi
Dew Point: 27°   Wind: 8mph
Humidity: 80%   Direction: 230°SW
Pressure: 28.94"   Gusts: NA
Location:  61.7°N, 30.68°E
Report Text: EFSA 201720Z AUTO 23007KT 160V300 9999 OVC019 M00/M03 Q0980
Loading
Personal Weather Stations






























Interactive Weather Map New forecast layout! Learn more

10-Day Weather Forecast

Advertisements
Track Severe Weather on mobile